Time;durP1;ratioP1;P1;durP2;ratioP2;P2;SDS_P1;SDS_P2;PMS_P1;PMS_P2;Temp;Humidity;BMP_temperature;BMP_pressure;BME280_temperature;BME280_humidity;BME280_pressure;Samples;Min_cycle;Max_cycle;Signal;HPM_P1;HPM_P2
2022/06/07 00:01:04;;;;;;;8.30;2.20;;;;;;;26.32;38.71;101143.72;5050838;28;20025;-58
2022/06/07 00:03:30;;;;;;;9.27;2.63;;;;;;;26.39;39.85;101138.63;5051963;28;20469;-58
2022/06/07 00:05:56;;;;;;;6.03;2.00;;;;;;;26.35;39.24;101139.53;5048611;28;20033;-58
2022/06/07 00:08:23;;;;;;;4.68;1.77;;;;;;;26.52;39.72;101148.00;5050173;28;20029;-58
2022/06/07 00:10:50;;;;;;;7.68;2.05;;;;;;;26.56;41.45;101138.84;5049278;28;20473;-58
2022/06/07 00:13:18;;;;;;;6.57;2.20;;;;;;;26.55;39.34;101130.94;5051352;28;20385;-58
2022/06/07 00:15:45;;;;;;;6.35;1.92;;;;;;;26.23;39.29;101131.81;5048021;28;20611;-58
2022/06/07 00:18:12;;;;;;;7.47;2.10;;;;;;;26.26;40.35;101128.44;5053210;28;20070;-58
2022/06/07 00:20:40;;;;;;;6.65;1.90;;;;;;;26.19;39.10;101120.63;5054589;28;20032;-58
2022/06/07 00:23:10;;;;;;;6.45;2.00;;;;;;;25.88;39.48;101116.84;5045875;28;20036;-58
2022/06/07 00:25:37;;;;;;;8.95;2.35;;;;;;;25.71;40.04;101128.34;5033637;28;20026;-58
2022/06/07 00:28:04;;;;;;;9.20;2.80;;;;;;;25.90;40.38;101129.13;5035581;28;20033;-58
2022/06/07 00:30:32;;;;;;;5.60;1.77;;;;;;;25.87;39.07;101123.41;5042443;28;20025;-58
2022/06/07 00:32:59;;;;;;;6.68;2.38;;;;;;;25.91;39.74;101128.00;5055452;28;20083;-58
2022/06/07 00:35:25;;;;;;;11.07;2.85;;;;;;;25.86;40.48;101130.03;5042843;28;20418;-58
2022/06/07 00:37:52;;;;;;;4.78;2.00;;;;;;;25.56;39.83;101128.59;5034894;28;20021;-58
2022/06/07 00:40:19;;;;;;;6.70;2.00;;;;;;;25.34;39.99;101130.03;5034583;28;20112;-58
2022/06/07 00:42:45;;;;;;;7.05;2.15;;;;;;;25.46;40.84;101124.09;5042322;28;20033;-58
2022/06/07 00:45:18;;;;;;;8.63;2.15;;;;;;;25.33;41.34;101114.72;5049888;28;20018;-58
2022/06/07 00:47:45;;;;;;;5.90;1.80;;;;;;;25.41;41.10;101114.03;5034856;28;20029;-58
2022/06/07 00:50:40;;;;;;;7.70;2.47;;;;;;;25.44;39.57;101112.63;5034813;28;20036;-58
2022/06/07 00:53:24;;;;;;;5.30;2.08;;;;;;;25.26;40.70;101114.25;5030706;28;20119;-58
2022/06/07 00:55:50;;;;;;;9.05;2.30;;;;;;;25.00;41.35;101109.16;4998247;28;20499;-58
2022/06/07 00:58:18;;;;;;;7.93;1.90;;;;;;;24.72;42.85;101099.16;5000985;28;20087;-58
2022/06/07 01:00:45;;;;;;;8.18;2.63;;;;;;;24.59;42.23;101105.34;5008794;28;20045;-57
2022/06/07 01:03:12;;;;;;;6.35;2.40;;;;;;;24.21;43.09;101092.38;5010961;28;20022;-58
2022/06/07 01:05:38;;;;;;;7.30;2.70;;;;;;;23.97;43.18;101091.53;5012505;28;20041;-58
2022/06/07 01:10:50;;;;;;;;;;;;;;;23.85;44.02;101086.47;5015266;28;20064;-58
2022/06/07 01:13:20;;;;;;;7.90;2.30;;;;;;;23.75;43.93;101089.28;5010099;28;19953;-57
2022/06/07 01:15:47;;;;;;;13.00;2.78;;;;;;;23.67;45.04;101089.94;5011218;28;20026;-57
2022/06/07 01:18:15;;;;;;;9.95;2.25;;;;;;;23.70;44.18;101083.88;5009108;28;20532;-56
2022/06/07 01:20:42;;;;;;;12.85;3.08;;;;;;;23.64;44.08;101085.03;5013295;28;20034;-57
2022/06/07 01:23:09;;;;;;;11.05;3.15;;;;;;;23.73;44.15;101091.50;5012780;28;20022;-55
2022/06/07 01:25:35;;;;;;;11.48;2.75;;;;;;;23.83;45.31;101085.94;5013131;28;20045;-55
2022/06/07 01:28:02;;;;;;;11.60;2.60;;;;;;;23.87;42.79;101078.78;4994738;28;20105;-56
2022/06/07 01:30:28;;;;;;;12.20;2.63;;;;;;;23.85;43.39;101088.38;5010325;28;20050;-53
2022/06/07 01:32:54;;;;;;;8.18;2.40;;;;;;;23.92;42.97;101088.84;5013072;28;20030;-53
2022/06/07 01:35:20;;;;;;;10.63;2.58;;;;;;;23.40;44.10;101083.03;5009878;28;20080;-58
2022/06/07 01:37:47;;;;;;;8.23;2.55;;;;;;;23.27;43.92;101080.94;5013921;28;20021;-58
2022/06/07 01:42:58;;;;;;;10.80;2.65;;;;;;;23.42;44.73;101080.81;5014575;28;20032;-58
2022/06/07 01:45:24;;;;;;;8.00;2.67;;;;;;;23.22;44.36;101075.53;5009082;28;20022;-58
2022/06/07 01:47:50;;;;;;;13.02;3.50;;;;;;;23.31;45.21;101073.00;5014189;28;20429;-58
2022/06/07 01:50:17;;;;;;;10.15;2.45;;;;;;;23.36;44.00;101071.03;5014383;28;20478;-58
2022/06/07 01:52:44;;;;;;;7.57;2.78;;;;;;;23.55;43.87;101064.88;5013963;28;20477;-58
2022/06/07 01:55:10;;;;;;;9.32;2.75;;;;;;;23.77;43.96;101064.44;5028656;28;20068;-58
2022/06/07 01:57:36;;;;;;;9.18;2.47;;;;;;;24.03;43.71;101065.75;5033977;28;20446;-58
2022/06/07 02:00:05;;;;;;;12.27;2.90;;;;;;;24.04;42.71;101061.09;5033976;28;20358;-58
2022/06/07 02:02:31;;;;;;;10.55;2.72;;;;;;;24.10;42.50;101079.13;5016188;28;20033;-58
2022/06/07 02:04:58;;;;;;;14.13;3.13;;;;;;;24.30;41.89;101069.84;5050090;28;20052;-58
2022/06/07 02:07:25;;;;;;;12.70;3.20;;;;;;;24.22;41.85;101065.84;5046504;28;20418;-58
2022/06/07 02:09:51;;;;;;;10.02;2.83;;;;;;;24.69;41.14;101072.38;5033846;28;20021;-59
2022/06/07 02:12:18;;;;;;;12.77;2.88;;;;;;;25.08;40.77;101065.81;5033708;28;20033;-59
2022/06/07 02:14:44;;;;;;;10.00;2.70;;;;;;;25.28;39.67;101070.97;5033889;28;20532;-59
2022/06/07 02:17:10;;;;;;;9.10;2.92;;;;;;;25.40;39.70;101060.34;5033467;28;20064;-58
2022/06/07 02:19:37;;;;;;;8.32;2.55;;;;;;;25.42;39.37;101058.09;5031234;28;20416;-57
2022/06/07 02:22:04;;;;;;;9.15;2.92;;;;;;;25.44;39.53;101061.38;5032439;28;20029;-57
2022/06/07 02:24:31;;;;;;;7.13;2.45;;;;;;;25.30;39.22;101065.19;5032686;28;20025;-57
2022/06/07 02:27:03;;;;;;;8.93;2.53;;;;;;;25.33;38.79;101062.66;5032961;28;20470;-57
2022/06/07 02:29:37;;;;;;;10.07;2.80;;;;;;;25.13;39.97;101063.00;5033216;28;20029;-57
2022/06/07 02:32:10;;;;;;;9.50;3.17;;;;;;;25.28;39.25;101065.47;5032892;28;20359;-57
2022/06/07 02:34:38;;;;;;;7.93;2.45;;;;;;;24.57;40.44;101072.00;5033279;28;20033;-58
2022/06/07 02:37:07;;;;;;;10.25;3.00;;;;;;;24.77;40.02;101074.47;5032281;28;20381;-58
2022/06/07 02:39:35;;;;;;;6.43;2.47;;;;;;;24.64;40.57;101081.44;5028942;28;20557;-58
2022/06/07 02:42:05;;;;;;;9.55;3.25;;;;;;;24.68;40.16;101071.56;5032039;28;20030;-59
2022/06/07 02:44:31;;;;;;;10.48;3.15;;;;;;;24.55;40.73;101085.97;5032507;28;20117;-58
2022/06/07 02:46:57;;;;;;;15.88;3.70;;;;;;;24.49;40.75;101079.75;5032704;28;20017;-58
2022/06/07 02:49:23;;;;;;;12.90;2.92;;;;;;;24.55;40.53;101093.38;5033433;28;20584;-57
2022/06/07 02:51:50;;;;;;;10.13;2.78;;;;;;;24.15;41.89;101087.22;5030562;28;20091;-58
2022/06/07 02:54:16;;;;;;;8.85;2.92;;;;;;;23.96;42.06;101085.25;5027812;28;20064;-57
2022/06/07 02:56:42;;;;;;;14.30;4.03;;;;;;;24.13;41.71;101083.97;5051391;28;20025;-57
2022/06/07 02:59:08;;;;;;;15.50;4.20;;;;;;;23.89;42.01;101078.50;5032027;28;20108;-59
2022/06/07 03:01:35;;;;;;;11.00;3.38;;;;;;;23.66;42.57;101071.91;5032078;28;20029;-57
2022/06/07 03:04:01;;;;;;;14.45;4.00;;;;;;;23.35;43.29;101077.59;5032166;28;20025;-58
2022/06/07 03:06:27;;;;;;;12.70;3.67;;;;;;;23.21;43.87;101076.63;5032228;28;20026;-57
2022/06/07 03:08:53;;;;;;;11.50;3.30;;;;;;;22.57;45.48;101072.09;5032405;28;20029;-57
2022/06/07 03:11:20;;;;;;;11.73;3.38;;;;;;;22.13;46.13;101075.53;5038185;28;20071;-57
2022/06/07 03:13:46;;;;;;;12.23;4.15;;;;;;;21.87;46.87;101067.38;5051993;28;20056;-58
2022/06/07 03:16:13;;;;;;;14.60;4.15;;;;;;;21.43;48.38;101071.78;5038625;28;20017;-57
2022/06/07 03:18:39;;;;;;;16.40;4.20;;;;;;;21.41;48.10;101087.59;5031887;28;20033;-59
2022/06/07 03:21:05;;;;;;;10.30;3.35;;;;;;;20.85;49.81;101090.22;5031849;28;20446;-58
2022/06/07 03:23:32;;;;;;;17.13;3.65;;;;;;;20.68;50.08;101077.66;5032199;28;20102;-57
2022/06/07 03:26:07;;;;;;;20.98;4.22;;;;;;;20.46;50.66;101075.13;5013946;28;20029;-56
2022/06/07 03:28:33;;;;;;;16.50;5.25;;;;;;;20.41;51.02;101076.97;5031878;28;20057;-57
2022/06/07 03:31:05;;;;;;;17.60;3.67;;;;;;;19.96;52.12;101081.09;5032005;28;20068;-57
2022/06/07 03:33:34;;;;;;;21.00;4.55;;;;;;;19.71;52.55;101077.16;5031323;28;20036;-57
2022/06/07 03:36:12;;;;;;;12.57;3.67;;;;;;;19.49;53.73;101070.97;5031461;28;20494;-58
2022/06/07 03:38:39;;;;;;;18.00;4.15;;;;;;;19.47;53.34;101073.94;5031533;28;20444;-57
2022/06/07 03:41:06;;;;;;;10.88;3.63;;;;;;;19.43;53.73;101067.41;5031631;28;20029;-58
2022/06/07 03:43:32;;;;;;;12.73;3.55;;;;;;;19.12;54.57;101069.03;5014085;28;20076;-57
2022/06/07 03:46:08;;;;;;;14.38;4.05;;;;;;;19.15;54.50;101073.91;5031389;28;20104;-57
2022/06/07 03:48:34;;;;;;;18.10;4.55;;;;;;;19.10;55.13;101071.19;5031404;28;20516;-58
2022/06/07 03:51:00;;;;;;;17.23;3.53;;;;;;;18.88;55.45;101084.00;5031397;28;20026;-58
2022/06/07 03:53:27;;;;;;;21.42;3.53;;;;;;;18.84;55.01;101085.56;5031168;28;20053;-58
2022/06/07 03:55:54;;;;;;;19.67;3.72;;;;;;;18.84;55.09;101086.38;5031038;28;20065;-58
2022/06/07 03:58:20;;;;;;;19.08;4.20;;;;;;;18.78;55.36;101092.81;5031494;28;20043;-58
2022/06/07 04:00:46;;;;;;;19.05;4.38;;;;;;;18.72;55.25;101096.56;5031390;28;20033;-57
2022/06/07 04:03:13;;;;;;;13.18;3.67;;;;;;;18.58;55.76;101087.94;5030439;28;20076;-57
2022/06/07 04:05:41;;;;;;;21.65;4.82;;;;;;;18.60;55.76;101091.25;5031122;28;20025;-57
2022/06/07 04:08:13;;;;;;;15.00;3.67;;;;;;;18.55;55.95;101101.22;5030563;28;20039;-57
2022/06/07 04:10:52;;;;;;;14.73;3.13;;;;;;;18.36;56.35;101095.25;5030689;28;20504;-57
2022/06/07 04:13:20;;;;;;;15.20;4.55;;;;;;;18.39;56.27;101090.16;5031703;28;20045;-57
2022/06/07 04:15:47;;;;;;;17.85;4.57;;;;;;;18.31;56.38;101095.19;5019891;28;20033;-57
2022/06/07 04:18:13;;;;;;;17.52;3.78;;;;;;;18.07;57.52;101097.31;5011521;28;20045;-57
2022/06/07 04:20:40;;;;;;;21.25;5.15;;;;;;;17.99;57.54;101093.16;5020487;28;20084;-57
2022/06/07 04:23:07;;;;;;;13.02;3.92;;;;;;;18.02;57.59;101095.34;5031478;28;20036;-57
2022/06/07 04:25:39;;;;;;;16.35;4.07;;;;;;;17.86;57.79;101101.59;5012344;28;20042;-57
2022/06/07 04:28:05;;;;;;;11.50;3.33;;;;;;;17.68;57.77;101089.94;5031378;28;20095;-57
2022/06/07 04:30:32;;;;;;;19.15;4.20;;;;;;;17.61;58.28;101099.31;5030602;28;20033;-57
2022/06/07 04:32:58;;;;;;;12.05;3.72;;;;;;;17.77;57.88;101100.41;5030508;28;20060;-57
2022/06/07 04:35:25;;;;;;;20.17;4.22;;;;;;;17.71;57.96;101107.56;5030602;28;20386;-57
2022/06/07 04:37:53;;;;;;;17.73;4.28;;;;;;;17.54;58.29;101106.75;5031157;28;20025;-57
2022/06/07 04:40:20;;;;;;;15.65;3.72;;;;;;;17.64;58.13;101099.63;5029468;28;20112;-57
2022/06/07 04:42:47;;;;;;;16.65;3.22;;;;;;;17.58;58.20;101099.78;5011729;28;20097;-57
2022/06/07 04:45:15;;;;;;;15.52;3.67;;;;;;;17.45;58.61;101106.34;5027889;28;20033;-57
2022/06/07 04:47:46;;;;;;;17.02;4.00;;;;;;;17.38;58.94;101108.41;5029692;28;20055;-57
2022/06/07 04:50:16;;;;;;;15.10;3.55;;;;;;;17.37;58.78;101121.09;5029372;28;20033;-57
2022/06/07 04:52:44;;;;;;;14.60;3.55;;;;;;;17.40;58.80;101117.91;5030772;28;20064;-57
2022/06/07 04:55:12;;;;;;;11.65;3.38;;;;;;;17.40;58.69;101122.50;5030816;28;20053;-57
2022/06/07 04:57:38;;;;;;;15.50;4.28;;;;;;;17.49;58.91;101112.06;5030500;28;20478;-57
2022/06/07 05:00:07;;;;;;;18.77;4.10;;;;;;;17.48;59.45;101126.66;5030290;28;20063;-57
2022/06/07 05:02:35;;;;;;;17.95;4.47;;;;;;;17.29;59.84;101107.16;5031222;28;20030;-57
2022/06/07 05:05:03;;;;;;;17.92;4.55;;;;;;;17.14;60.17;101121.22;5026470;28;20029;-57
2022/06/07 05:07:30;;;;;;;18.88;4.57;;;;;;;17.13;60.54;101117.69;5041619;28;20080;-57
2022/06/07 05:09:56;;;;;;;21.77;4.82;;;;;;;17.11;60.52;101130.66;5053921;28;20037;-57
2022/06/07 05:12:23;;;;;;;17.15;3.50;;;;;;;16.95;61.53;101128.72;5048848;28;20026;-57
2022/06/07 05:14:49;;;;;;;13.35;4.10;;;;;;;16.82;61.90;101127.13;5043843;28;20029;-58
2022/06/07 05:17:16;;;;;;;18.40;4.60;;;;;;;16.99;61.33;101129.03;5034355;28;20031;-58
2022/06/07 05:19:42;;;;;;;21.90;3.97;;;;;;;16.94;61.61;101129.78;5034425;28;20105;-58
2022/06/07 05:22:09;;;;;;;14.73;4.15;;;;;;;17.00;61.70;101136.94;5034248;28;20116;-58
2022/06/07 05:24:35;;;;;;;12.75;4.65;;;;;;;16.85;62.34;101142.03;5034000;28;20503;-58
2022/06/07 05:27:04;;;;;;;19.25;4.47;;;;;;;16.92;62.30;101136.47;5033989;28;20129;-59
2022/06/07 05:29:54;;;;;;;14.93;4.15;;;;;;;16.78;62.66;101138.66;5034228;28;20025;-58
2022/06/07 05:32:21;;;;;;;17.98;4.60;;;;;;;16.76;62.82;101140.75;5033799;28;20029;-58
2022/06/07 05:34:48;;;;;;;10.63;4.07;;;;;;;16.78;62.86;101144.88;5015749;28;20144;-58
2022/06/07 05:37:19;;;;;;;18.55;3.88;;;;;;;16.75;63.02;101139.94;5033848;28;20034;-58
2022/06/07 05:39:46;;;;;;;14.57;4.53;;;;;;;16.86;62.52;101140.97;5033922;28;20427;-58
2022/06/07 05:42:14;;;;;;;20.83;4.28;;;;;;;16.52;63.78;101143.50;5033699;28;20053;-58
2022/06/07 05:44:42;;;;;;;16.70;4.43;;;;;;;16.55;63.48;101153.84;5033559;28;20521;-58
2022/06/07 05:47:09;;;;;;;19.52;4.38;;;;;;;16.64;63.47;101148.88;5033179;28;20136;-58
2022/06/07 05:49:36;;;;;;;19.33;4.40;;;;;;;16.42;63.12;101155.94;5029852;28;20033;-58
2022/06/07 05:52:03;;;;;;;20.27;4.28;;;;;;;16.37;63.50;101162.88;5033034;28;20033;-58
2022/06/07 05:54:31;;;;;;;17.67;4.45;;;;;;;16.38;63.58;101166.44;5032676;28;20060;-57
2022/06/07 05:56:58;;;;;;;19.52;5.03;;;;;;;16.29;63.85;101160.56;5032282;28;20036;-58
2022/06/07 05:59:24;;;;;;;29.48;5.85;;;;;;;16.23;64.02;101157.97;5032700;28;20041;-58
2022/06/07 06:01:51;;;;;;;21.17;5.80;;;;;;;16.30;63.80;101162.19;5032721;28;20034;-58
2022/06/07 06:04:17;;;;;;;44.95;17.48;;;;;;;15.98;64.86;101158.19;5014946;28;20091;-58
2022/06/07 06:06:43;;;;;;;48.88;16.65;;;;;;;15.98;64.49;101156.31;5032744;28;20037;-58
2022/06/07 06:11:55;;;;;;;129.70;37.92;;;;;;;15.77;65.12;101146.13;5033793;28;20063;-58
2022/06/07 06:14:22;;;;;;;47.92;14.30;;;;;;;15.78;65.12;101140.47;5031673;28;20041;-58
2022/06/07 06:16:49;;;;;;;33.85;8.77;;;;;;;15.62;65.91;101141.13;5032052;28;20485;-58
2022/06/07 06:19:15;;;;;;;45.90;15.27;;;;;;;15.54;65.77;101144.97;5032722;28;20037;-58
2022/06/07 06:21:44;;;;;;;36.42;12.18;;;;;;;15.53;65.71;101145.19;5032375;28;20033;-58
2022/06/07 06:24:11;;;;;;;20.55;8.27;;;;;;;15.56;65.50;101137.47;5033178;28;20071;-58
2022/06/07 06:26:39;;;;;;;20.05;5.60;;;;;;;15.48;65.89;101135.09;5031971;28;20033;-58
2022/06/07 06:29:08;;;;;;;20.08;5.78;;;;;;;15.27;66.54;101143.75;5032843;28;20021;-58
2022/06/07 06:31:35;;;;;;;22.08;5.38;;;;;;;15.36;66.19;101142.34;5031791;28;20025;-58
2022/06/07 06:34:02;;;;;;;23.92;4.47;;;;;;;15.28;66.48;101143.50;5032708;28;20497;-58
2022/06/07 06:36:30;;;;;;;26.40;5.68;;;;;;;15.22;66.71;101141.72;5031822;28;20022;-58
2022/06/07 06:38:57;;;;;;;25.30;5.18;;;;;;;15.16;66.96;101141.81;5033101;28;20026;-58
2022/06/07 06:41:30;;;;;;;21.30;4.47;;;;;;;15.11;66.97;101137.09;5031937;28;20026;-58
2022/06/07 06:44:00;;;;;;;21.48;4.43;;;;;;;15.11;67.28;101152.47;5032567;28;20029;-58
2022/06/07 06:46:32;;;;;;;17.27;4.55;;;;;;;14.94;68.01;101152.28;5031361;28;20022;-58
2022/06/07 06:48:58;;;;;;;24.00;5.03;;;;;;;15.02;67.45;101160.03;5032091;28;20049;-58
2022/06/07 06:51:28;;;;;;;19.65;4.30;;;;;;;14.88;67.90;101159.41;5030510;28;20065;-58
2022/06/07 06:53:57;;;;;;;15.95;4.10;;;;;;;14.91;67.85;101160.81;5031517;28;20049;-58
2022/06/07 06:56:24;;;;;;;28.00;5.03;;;;;;;14.84;68.17;101151.97;5032078;28;20041;-58
2022/06/07 06:58:52;;;;;;;21.25;4.82;;;;;;;14.74;67.88;101160.59;5031419;28;20040;-58
2022/06/07 07:01:22;;;;;;;20.35;4.50;;;;;;;14.90;67.57;101153.78;5031638;28;20104;-58
2022/06/07 07:03:49;;;;;;;17.48;4.13;;;;;;;14.85;67.50;101150.94;5027780;28;20030;-57
2022/06/07 07:06:16;;;;;;;22.98;4.93;;;;;;;14.76;68.12;101153.09;5031894;28;20103;-58
2022/06/07 07:08:44;;;;;;;22.27;4.28;;;;;;;14.73;68.37;101145.47;5030844;28;20140;-58
2022/06/07 07:11:17;;;;;;;27.33;5.57;;;;;;;14.77;68.03;101160.97;5032026;28;20112;-58
2022/06/07 07:13:44;;;;;;;16.95;4.70;;;;;;;14.70;68.20;101156.69;5030456;28;20040;-58
2022/06/07 07:16:14;;;;;;;20.55;4.75;;;;;;;14.64;68.55;101166.50;5030696;28;20056;-58
2022/06/07 07:18:41;;;;;;;24.10;5.03;;;;;;;14.58;68.65;101171.97;5012595;28;20056;-58
2022/06/07 07:21:10;;;;;;;26.55;5.72;;;;;;;14.60;68.51;101167.16;5012304;28;20033;-58
2022/06/07 07:23:37;;;;;;;25.40;5.38;;;;;;;14.65;68.31;101175.41;5026842;28;20033;-58
2022/06/07 07:26:10;;;;;;;23.52;4.57;;;;;;;14.35;69.21;101186.06;5029383;28;20032;-58
2022/06/07 07:28:38;;;;;;;15.73;3.97;;;;;;;14.36;68.94;101185.00;5031903;28;20034;-58
2022/06/07 07:31:06;;;;;;;21.05;4.70;;;;;;;14.39;68.93;101177.31;5028224;28;20030;-58
2022/06/07 07:33:34;;;;;;;22.27;5.38;;;;;;;14.27;69.28;101182.63;5031556;28;20462;-58
2022/06/07 07:36:03;;;;;;;28.30;5.75;;;;;;;14.35;68.90;101184.19;5031604;28;20029;-58
2022/06/07 07:38:29;;;;;;;16.55;4.47;;;;;;;14.25;69.09;101167.72;5031828;28;20024;-58
2022/06/07 07:40:55;;;;;;;19.95;4.63;;;;;;;14.33;69.00;101175.53;5031658;28;20025;-58
2022/06/07 07:43:21;;;;;;;19.17;4.85;;;;;;;14.31;69.25;101172.22;5031939;28;20034;-58
2022/06/07 07:45:52;;;;;;;23.75;4.90;;;;;;;14.30;69.14;101170.56;5025614;28;20025;-58
2022/06/07 07:48:18;;;;;;;22.73;5.25;;;;;;;14.27;69.42;101160.25;5030947;28;20493;-58
2022/06/07 07:50:45;;;;;;;24.38;6.30;;;;;;;14.25;69.50;101159.63;5031518;28;20470;-58
2022/06/07 07:53:12;;;;;;;31.13;6.00;;;;;;;14.17;69.69;101168.03;5031762;28;20381;-58
2022/06/07 07:55:50;;;;;;;19.27;4.85;;;;;;;14.13;69.91;101169.50;5031159;28;20115;-58
2022/06/07 07:58:20;;;;;;;23.50;4.60;;;;;;;14.11;70.22;101160.84;5013840;28;20113;-58
2022/06/07 08:00:48;;;;;;;19.50;4.72;;;;;;;14.13;70.26;101164.13;5031620;28;20013;-58
2022/06/07 08:03:15;;;;;;;17.27;4.57;;;;;;;14.15;70.51;101170.09;5031123;28;20046;-58
2022/06/07 08:05:42;;;;;;;16.27;4.32;;;;;;;14.10;70.29;101164.53;5030887;28;20486;-58
2022/06/07 08:08:09;;;;;;;26.15;4.72;;;;;;;14.16;70.17;101166.38;5031489;28;20087;-58
2022/06/07 08:10:36;;;;;;;25.15;4.80;;;;;;;14.05;70.38;101162.53;5031436;28;20030;-58
2022/06/07 08:13:03;;;;;;;21.00;4.65;;;;;;;14.16;70.29;101158.31;5031314;28;20100;-59
2022/06/07 08:15:31;;;;;;;14.95;4.47;;;;;;;14.08;70.43;101155.88;5031222;28;20030;-58
2022/06/07 08:17:58;;;;;;;22.98;4.85;;;;;;;14.14;70.30;101171.97;5030243;28;20489;-59
2022/06/07 08:20:24;;;;;;;20.42;4.07;;;;;;;14.21;70.06;101163.81;5011478;28;20036;-58
2022/06/07 08:22:50;;;;;;;20.42;4.88;;;;;;;14.28;69.63;101175.38;5011512;28;20030;-58
2022/06/07 08:25:17;;;;;;;17.35;5.18;;;;;;;14.38;68.94;101183.75;5014121;28;20036;-58
2022/06/07 08:27:44;;;;;;;19.42;4.43;;;;;;;14.18;69.55;101186.63;5029263;28;20057;-58
2022/06/07 08:30:11;;;;;;;25.98;4.50;;;;;;;14.17;69.91;101185.00;5031381;28;20067;-58
2022/06/07 08:32:37;;;;;;;18.38;4.88;;;;;;;14.22;69.59;101181.63;5030457;28;20033;-58
2022/06/07 08:37:48;;;;;;;16.98;4.00;;;;;;;14.16;69.79;101190.59;5031721;28;20109;-58
2022/06/07 08:40:30;;;;;;;23.95;5.25;;;;;;;13.99;70.57;101184.94;5033867;28;20026;-58
2022/06/07 08:43:02;;;;;;;21.88;5.15;;;;;;;14.08;70.58;101191.69;5033139;28;20111;-58
2022/06/07 08:45:35;;;;;;;25.50;5.63;;;;;;;13.91;70.91;101187.91;5022922;28;20569;-58
2022/06/07 08:48:10;;;;;;;23.35;4.88;;;;;;;13.97;70.74;101178.94;5015160;28;20030;-58
2022/06/07 08:50:47;;;;;;;18.73;4.75;;;;;;;13.96;70.77;101188.06;5027538;28;20063;-58
2022/06/07 08:53:29;;;;;;;22.05;5.45;;;;;;;13.87;71.11;101190.19;5034619;28;20075;-57
2022/06/07 08:55:59;;;;;;;30.15;5.35;;;;;;;13.85;70.91;101183.41;5032943;28;20559;-58
2022/06/07 08:58:38;;;;;;;18.48;5.28;;;;;;;13.77;70.93;101192.56;5030122;28;20059;-58
2022/06/07 09:01:35;;;;;;;20.27;4.80;;;;;;;13.76;70.96;101180.16;5032300;28;20053;-58
2022/06/07 09:04:24;;;;;;;25.05;4.93;;;;;;;13.70;70.91;101181.84;5034012;28;20056;-58
2022/06/07 09:06:57;;;;;;;22.85;5.20;;;;;;;13.70;71.14;101175.63;5014950;28;20092;-58
2022/06/07 09:12:27;;;;;;;23.85;5.75;;;;;;;13.79;70.73;101157.38;5034355;28;20063;-58
2022/06/07 09:15:09;;;;;;;30.98;5.28;;;;;;;13.55;71.55;101151.78;5032862;28;20029;-58
2022/06/07 09:17:42;;;;;;;24.23;4.65;;;;;;;13.40;72.00;101148.56;5033587;28;20033;-58
2022/06/07 09:20:19;;;;;;;23.88;5.95;;;;;;;13.53;71.74;101148.44;5033141;28;20022;-59
2022/06/07 09:22:57;;;;;;;23.20;4.90;;;;;;;13.47;71.77;101146.63;5033438;28;20037;-57
2022/06/07 09:25:34;;;;;;;31.17;6.18;;;;;;;13.37;72.08;101143.59;5033414;28;20052;-58
2022/06/07 09:28:03;;;;;;;18.52;4.57;;;;;;;13.44;71.76;101133.66;5034313;28;20478;-58
2022/06/07 09:30:39;;;;;;;24.27;5.15;;;;;;;13.55;71.52;101134.78;5030821;28;20486;-58
2022/06/07 09:33:10;;;;;;;;;;;;;;;13.38;72.06;101135.34;5014793;28;20382;-57
2022/06/07 09:35:41;;;;;;;21.08;5.13;;;;;;;13.38;72.03;101137.19;5016786;28;19971;-58
2022/06/07 09:38:17;;;;;;;22.92;5.30;;;;;;;13.22;72.74;101135.03;5033602;28;20049;-57
2022/06/07 09:41:36;;;;;;;24.85;5.43;;;;;;;13.46;71.94;101140.44;5032639;28;20029;-58
2022/06/07 09:43:54;;;;;;;20.15;5.45;;;;;;;13.37;72.13;101139.03;5021582;28;20564;-57
2022/06/07 09:46:27;;;;;;;24.92;4.97;;;;;;;13.39;72.18;101147.75;5018012;28;20057;-58
2022/06/07 09:48:53;;;;;;;20.45;5.10;;;;;;;13.46;71.84;101163.81;5032758;28;20513;-58
2022/06/07 09:51:24;;;;;;;23.02;4.78;;;;;;;13.35;72.20;101154.56;5028453;28;20390;-58
2022/06/07 09:54:01;;;;;;;26.08;5.50;;;;;;;13.20;72.84;101154.00;5028834;28;20525;-57
2022/06/07 09:56:45;;;;;;;21.77;5.03;;;;;;;13.21;72.65;101153.00;5033061;28;20370;-58
2022/06/07 09:59:38;;;;;;;25.88;6.05;;;;;;;13.13;73.07;101153.22;5029629;28;20056;-58
2022/06/07 10:02:19;;;;;;;28.08;4.95;;;;;;;13.12;73.14;101146.22;5033327;28;20026;-58
2022/06/07 10:04:59;;;;;;;25.15;4.70;;;;;;;13.08;73.38;101142.31;5030288;28;20106;-58
2022/06/07 10:07:54;;;;;;;19.70;5.30;;;;;;;13.35;72.21;101143.00;5029338;28;20043;-57
2022/06/07 10:10:37;;;;;;;20.75;4.97;;;;;;;13.38;72.25;101138.03;5032327;28;20104;-58
2022/06/07 10:13:26;;;;;;;20.83;4.50;;;;;;;13.20;72.92;101137.88;5030247;28;20112;-57
2022/06/07 10:16:13;;;;;;;22.98;5.35;;;;;;;13.23;73.34;101126.75;5031884;28;20026;-57
2022/06/07 10:18:55;;;;;;;24.35;5.32;;;;;;;13.10;73.46;101129.47;5031806;28;20029;-58
2022/06/07 10:21:56;;;;;;;22.90;6.03;;;;;;;13.12;73.61;101138.97;5032353;28;20021;-57
2022/06/07 10:24:41;;;;;;;26.50;5.75;;;;;;;13.13;73.99;101137.09;5032876;28;20030;-57
2022/06/07 10:27:34;;;;;;;25.08;4.38;;;;;;;13.16;74.02;101125.94;5033787;28;20104;-57
2022/06/07 10:30:16;;;;;;;18.23;4.70;;;;;;;13.22;73.74;101127.78;5031503;28;20065;-57
2022/06/07 10:32:54;;;;;;;20.10;5.03;;;;;;;13.29;73.39;101120.50;5032900;28;20021;-57
2022/06/07 10:35:57;;;;;;;21.98;4.35;;;;;;;13.24;73.49;101117.63;5031381;28;20037;-58
2022/06/07 10:38:41;;;;;;;24.25;4.63;;;;;;;13.04;73.97;101108.81;5029886;28;20029;-57
2022/06/07 10:41:31;;;;;;;22.65;4.80;;;;;;;13.14;73.66;101107.31;5013036;28;20049;-57
2022/06/07 10:44:15;;;;;;;29.33;5.20;;;;;;;13.12;73.33;101108.59;5019382;28;20033;-58
2022/06/07 10:46:43;;;;;;;15.82;4.85;;;;;;;12.97;73.94;101100.81;5023432;28;20040;-57
2022/06/07 10:49:20;;;;;;;20.70;4.70;;;;;;;12.82;74.40;101106.44;5027724;28;20652;-58
2022/06/07 10:54:46;;;;;;;21.83;5.30;;;;;;;13.06;73.32;101110.28;5028688;28;20091;-58
2022/06/07 10:57:36;;;;;;;29.88;5.63;;;;;;;13.06;72.98;101120.22;5028700;28;20029;-57
2022/06/07 11:00:35;;;;;;;22.15;4.13;;;;;;;13.10;73.06;101116.88;5027954;28;20056;-58
2022/06/07 11:03:52;;;;;;;14.98;3.83;;;;;;;13.11;73.00;101134.66;5025717;28;20029;-58
2022/06/07 11:09:21;;;;;;;24.33;4.70;;;;;;;13.13;72.42;101161.28;5027886;28;20332;-57
2022/06/07 11:12:22;;;;;;;16.30;4.90;;;;;;;13.09;73.16;101158.19;5031963;28;20470;-57
2022/06/07 11:15:16;;;;;;;19.60;4.50;;;;;;;13.05;73.07;101156.19;4974656;28;20096;-57
2022/06/07 11:18:13;;;;;;;18.67;5.38;;;;;;;13.13;73.22;101163.97;5031346;28;20033;-57
2022/06/07 11:20:50;;;;;;;21.88;4.57;;;;;;;12.87;74.20;101159.56;5029752;28;20040;-57
2022/06/07 11:23:24;;;;;;;23.90;5.28;;;;;;;12.95;73.80;101152.09;5031289;28;20132;-57
2022/06/07 11:26:06;;;;;;;18.25;4.47;;;;;;;12.91;74.26;101144.66;5022002;28;20052;-57
2022/06/07 11:28:41;;;;;;;22.75;5.40;;;;;;;12.86;74.40;101139.91;5031251;28;20083;-57
2022/06/07 11:31:41;;;;;;;20.42;4.30;;;;;;;12.82;74.44;101138.69;5031249;28;20432;-57
2022/06/07 11:34:29;;;;;;;31.63;5.50;;;;;;;12.85;74.53;101140.16;5019975;28;20045;-58
2022/06/07 11:37:21;;;;;;;21.15;4.90;;;;;;;13.02;73.66;101140.47;5045344;28;20032;-57
2022/06/07 11:39:54;;;;;;;17.45;4.20;;;;;;;12.89;74.19;101147.56;5051557;28;20595;-57
2022/06/07 11:42:28;;;;;;;20.73;4.40;;;;;;;12.91;73.75;101150.84;5051815;28;20108;-57
2022/06/07 11:45:03;;;;;;;27.23;5.57;;;;;;;12.91;73.79;101152.72;5042177;28;20067;-57
2022/06/07 11:48:04;;;;;;;18.98;4.97;;;;;;;12.93;73.37;101143.38;5031607;28;20029;-57
2022/06/07 11:50:52;;;;;;;20.60;4.57;;;;;;;12.99;73.44;101146.25;5051640;28;20061;-57
2022/06/07 11:53:29;;;;;;;19.95;4.28;;;;;;;12.85;73.66;101161.63;5051706;28;20025;-58
2022/06/07 11:56:01;;;;;;;13.50;4.88;;;;;;;12.92;73.61;101163.25;5051138;28;20048;-57
2022/06/07 11:59:03;;;;;;;26.88;5.43;;;;;;;13.09;72.63;101171.63;5051579;28;20033;-58